Metar Cercanos

 

LEPA - Palma De Mallorc, Spain
Distance from station: ONO 38km
Actualización: 13/12/2017 02:30
Parcialmente nuboso
Parcialmente nuboso
 Viento del N
Viento: N 4 km/h
Temperatura: 8°C
Rocío: 6°C
Humedad: 87%
Barómetro: 1023 hPa
Clouds: Parcialmente nuboso
Visibility: 10 km
Cloud details: Few Clouds 701 m
Parcialmente nuboso 1707 m
2017/12/13 01:30 LEPA 130130Z 01002KT 9999 FEW023 SCT056 08/06 Q1023 NOSIG
LEMH - Mahon/Menorca Is, Spain
Distance from station: ENE 105km
Actualización: 13/12/2017 02:30
Despejado
Despejado
 Viento del N
Viento: N 15 km/h
Temperatura: 6°C
Sensación frio: 3°C
Rocío: 3°C
Humedad: 81%
Barómetro: 1022 hPa
Clouds: Despejado
Visibility: 8 km
2017/12/13 01:30 LEMH 130130Z AUTO 01008KT 8000 NCD 06/03 Q1022
 
LEIB - Ibiza/Es Codola, Spain
Distance from station: OSO 165km
Actualización: 13/12/2017 00:00
NOT Current
Despejado
Despejado
 Viento del varies
Viento: varies 2 km/h
Temperatura: 6°C
Rocío: 2°C
Humedad: 76%
Barómetro: 1022 hPa
Resumen: Despejado
Visibility: greater than 10 km
2017/12/12 23:00 LEIB 122300Z VRB01KT CAVOK 06/02 Q1022 NOSIG
LEBL - Barcelona Airpor, Spain
Distance from station: NNO 225km
Actualización: 13/12/2017 02:30
Despejado
Despejado
 Viento del NNO
Viento: NNO 20 km/h
Temperatura: 4°C
Sensación frio: -1°C
Rocío: 1°C
Humedad: 81%
Barómetro: 1023 hPa
Resumen: Despejado
Visibility: greater than 10 km
2017/12/13 01:30 LEBL 130130Z 33011KT CAVOK 04/01 Q1023 NOSIG
 
LEVC - Valencia (civ/Mi, Spain
Distance from station: NO 188km
Actualización: 13/12/2017 02:30
Despejado
Despejado
 Viento del OSO
Viento: OSO 6 km/h
Temperatura: 3°C
Rocío: -2°C
Humedad: 70%
Barómetro: 1025 hPa
Resumen: Despejado
Visibility: greater than 10 km
2017/12/13 01:30 LEVC 130130Z 25003KT 210V280 CAVOK 03/M02 Q1025 NOSIG
LEGE - Gerona/Costa Bra, Spain
Distance from station: N 276km
Actualización: 13/12/2017 02:30
Parcialmente nuboso
Parcialmente nuboso
 Viento del NNE
Viento: NNE 6 km/h
Temperatura: -1°C
Rocío: -1°C
Humedad: 100%
Barómetro: 1022 hPa
Clouds: Parcialmente nuboso
Visibility: 9 km
2017/12/13 01:30 LEGE 130130Z 03003KT 9000 NSC M01/M01 Q1022
 
LEAL - Alicante/El Alte, Spain
Distance from station: OSO 344km
Actualización: 13/12/2017 02:30
Despejado
Despejado
 Viento del NO
Viento: NO 17 km/h
Temperatura: 8°C
Sensación frio: 5°C
Rocío: -2°C
Humedad: 50%
Barómetro: 1024 hPa
Resumen: Despejado
Visibility: greater than 10 km
2017/12/13 01:30 LEAL 130130Z 31009KT CAVOK 08/M02 Q1024 NOSIG
LEAM - Almeria Airport, Spain
Distance from station: SSO 56km
Actualización: 13/12/2017 02:30
Despejado
Despejado
 Viento del NNO
Viento: NNO 26 km/h
Temperatura: 8°C
Sensación frio: 4°C
Rocío: -1°C
Humedad: 53%
Barómetro: 1024 hPa
Clouds: Despejado
Visibility: 10 km
2017/12/13 01:30 LEAM 130130Z AUTO 33014KT 9999 NCD 08/M01 Q1024
 
LEZG - Zaragoza (mil/Ci, Spain
Distance from station: NO 431km
Actualización: 13/12/2017 02:30
Despejado
Despejado
 Viento del calm
Viento: Calma
Temperatura: 2°C
Rocío: -1°C
Humedad: 81%
Barómetro: 1024 hPa
Resumen: Despejado
Visibility: greater than 10 km
2017/12/13 01:30 LEZG 130130Z 00000KT CAVOK 02/M01 Q1024
LEMD - Madrid/Barajas, Spain
Distance from station: ONO 234km
Actualización: 13/12/2017 02:30
Despejado
Despejado
 Viento del N
Viento: N 6 km/h
Temperatura: -1°C
Rocío: -2°C
Humedad: 93%
Barómetro: 1025 hPa
Resumen: Despejado
Visibility: greater than 10 km
2017/12/13 01:30 LEMD 130130Z 35003KT CAVOK M01/M02 Q1025 NOSIG
 
LEGR - Granada Airport, Spain
Distance from station: OSO 62km
Actualización: 13/12/2017 02:30
Despejado
Despejado
 Viento del varies
Viento: varies 2 km/h
Temperatura: -2°C
Rocío: -3°C
Humedad: 93%
Barómetro: 1025 hPa
Clouds: Despejado
Visibility: 10 km
2017/12/13 01:30 LEGR 130130Z AUTO VRB01KT 9999 NCD M02/M03 Q1025
LEMG - Malaga (civ/Mil), Spain
Distance from station: OSO 227km
Actualización: 13/12/2017 02:30
Despejado
Despejado
 Viento del NO
Viento: NO 13 km/h
Temperatura: 6°C
Sensación frio: 3°C
Rocío: 1°C
Humedad: 71%
Barómetro: 1025 hPa
Resumen: Despejado
Visibility: greater than 10 km
2017/12/13 01:30 LEMG 130130Z 31007KT CAVOK 06/01 Q1025 NOSIG
 
LEZL - Sevilla (civ/Mil, Spain
Distance from station: S 318km
Actualización: 13/12/2017 02:30
Despejado
Despejado
 Viento del ENE
Viento: ENE 6 km/h
Temperatura: 7°C
Rocío: 4°C
Humedad: 81%
Barómetro: 1025 hPa
Clouds: Despejado
Visibility: 10 km
2017/12/13 01:30 LEZL 130130Z AUTO 06003KT 040V100 9999 NCD 07/04 Q1025
LEVT - Vitoria, Spain
Distance from station: NO 226km
Actualización: 13/12/2017 02:30
Few Clouds
Few Clouds
 Viento del varies
Viento: varies 2 km/h
Temperatura: -1°C
Rocío: -1°C
Humedad: 100%
Barómetro: 1022 hPa
Clouds: Few Clouds
Visibility: 9 km
Cloud details: Few Clouds 1981 m
2017/12/13 01:30 LEVT 130130Z VRB01KT 9000 FEW065 M01/M01 Q1022
 
LEBB - Bilbao/Sondica, Spain
Distance from station: NNO 235km
Actualización: 13/12/2017 02:30
Despejado
Despejado
 Viento del calm
Viento: Calma
Temperatura: 4°C
Rocío: 2°C
Humedad: 87%
Barómetro: 1021 hPa
Clouds: Despejado
Visibility: 10 km
2017/12/13 01:30 LEBB 130130Z AUTO 00000KT 9999 NCD 04/02 Q1021
LESO - San Sebastian/Fu, Spain
Distance from station: N 231km
Actualización: 13/12/2017 02:30
Muy nuboso
Muy nuboso
 Viento del S
Viento: S 7 km/h
Temperatura: 7°C
Sensación frio: 6°C
Rocío: 3°C
Humedad: 76%
Barómetro: 1021 hPa
Clouds: Muy nuboso
Visibility: 10 km
Cloud details: Muy nuboso 2012 m
2017/12/13 01:30 LESO 130130Z AUTO 19004KT 9999 BKN066 07/03 Q1021
 
LEVD - Valladolid(Mil/C, Spain
Distance from station: ONO 239km
Actualización: 12/12/2017 21:30
NOT Current
Despejado
Despejado
 Viento del SSO
Viento: SSO 7 km/h
Temperatura: 2°C
Sensación frio: 0°C
Rocío: -1°C
Humedad: 81%
Barómetro: 1021 hPa
Resumen: Despejado
Visibility: greater than 10 km
2017/12/12 20:30 LEVD 122030Z 21004KT CAVOK 02/M01 Q1021
LESA - Salamanca (civ/M, Spain
Distance from station: ONO 349km
Actualización: 13/12/2017 00:30
NOT Current
Despejado
Despejado
 Viento del varies
Viento: varies 2 km/h
Temperatura: -1°C
Rocío: -2°C
Humedad: 93%
Barómetro: 1024 hPa
Resumen: Despejado
Visibility: greater than 10 km
2017/12/12 23:30 LESA 122330Z VRB01KT CAVOK M01/M02 Q1024
 
LEXJ - Santander/Paraya, Spain
Distance from station: NNO 247km
Actualización: 13/12/2017 02:30
Muy nuboso
Muy nuboso
 Viento del SO
Viento: SO 15 km/h
Temperatura: 9°C
Sensación frio: 7°C
Rocío: 2°C
Humedad: 62%
Barómetro: 1020 hPa
Clouds: Muy nuboso
Visibility: 7 km
Cloud details: Muy nuboso 1798 m
Muy nuboso 2134 m
2017/12/13 01:30 LEXJ 130130Z AUTO 22008KT 7000 BKN059 BKN070 09/02 Q1020
LEAS - Asturias/Aviles, Spain
Distance from station: NO 214km
Actualización: 13/12/2017 02:30
Muy nuboso
Muy nuboso
 Viento del SO
Viento: SO 22 km/h
Temperatura: 11°C
Rocío: 6°C
Humedad: 72%
Barómetro: 1019 hPa
Clouds: Muy nuboso
Visibility: 10 km
Cloud details: Parcialmente nuboso 884 m
Muy nuboso 1920 m
2017/12/13 01:30 LEAS 130130Z 22012KT 190V250 9999 SCT029 BKN063 11/06 Q1019 NOSIG
 
LECO - La Coruna/Alvedr, Spain
Distance from station: ONO 222km
Actualización: 13/12/2017 02:30
Muy nuboso
Muy nuboso
 Viento del SSO
Viento: SSO 26 km/h
Temperatura: 11°C
Rocío: 9°C
Humedad: 88%
Barómetro: 1021 hPa
Clouds: Muy nuboso
Visibility: 10 km
Cloud details: Muy nuboso 914 m
2017/12/13 01:30 LECO 130130Z AUTO 21014KT 9999 BKN030/// 11/09 Q1021
LEVX - Vigo/Peinador, Spain
Distance from station: O 214km
Actualización: 13/12/2017 02:30
Niebla, Drizzle, Cubierto
Niebla, Drizzle, Cubierto
 Viento del S
Viento: S 13 km/h
Temperatura: 8°C
Sensación frio: 6°C
Rocío: 8°C
Humedad: 100%
Barómetro: 1023 hPa
Resumen: Niebla, Drizzle
Clouds: Cubierto
Visibility: 0 km
Cloud details: Cubierto 30 m
2017/12/13 01:30 LEVX 130130Z 17007KT 060V230 0250 R19/P2000 R01/0375N FG DZ VV001 08/08 Q1023 NOSIG